DHL601 EBLG-LLBG
Flight info
| Callsign | DHL601 |
|---|---|
| Flight time | N/A |
| Altitude | 33000 |
| Route | LNO DCT LIRSU DCT RUDUS T109 HAREM T104 WLD M867 RADIZ DCT NIPEL DCT DARZA DCT PETAK/N0475F350 DCT PINDO DCT RDS UL609 ALKIS L609 ZUKKO |
| Aircraft | B763/H-SDE3FGHIM3RWXY/LB1 |
Departure
| Time | 2026-05-09 05:29 |
|---|---|
| Airport | Liège Airport (EBLG) |
Arrival
| Time | N/A |
|---|---|
| Airport | Ben Gurion International Airport (LLBG) |
| Time | Latitude | Longitude | Altitude | Speed | Heading |
|---|---|---|---|---|---|
| 2026-05-09 05:09 | 50.63586 | 5.43091 | 622 ft | 0 kts | 314° |
| 2026-05-09 05:22 | 50.63543 | 5.43229 | 622 ft | 0 kts | 223° |
| 2026-05-09 05:25 | 50.63451 | 5.43089 | 625 ft | 16 kts | 224° |
| 2026-05-09 05:26 | 50.63370 | 5.42983 | 626 ft | 13 kts | 210° |
| 2026-05-09 05:26 | 50.63290 | 5.42920 | 627 ft | 11 kts | 204° |
| 2026-05-09 05:26 | 50.63226 | 5.42892 | 628 ft | 7 kts | 179° |
| 2026-05-09 05:26 | 50.63173 | 5.42913 | 631 ft | 10 kts | 163° |
| 2026-05-09 05:27 | 50.63083 | 5.42946 | 634 ft | 14 kts | 167° |
| 2026-05-09 05:27 | 50.63007 | 5.42978 | 637 ft | 8 kts | 160° |
| 2026-05-09 05:27 | 50.62972 | 5.43000 | 639 ft | 3 kts | 152° |
| 2026-05-09 05:27 | 50.62927 | 5.43058 | 641 ft | 8 kts | 120° |
| 2026-05-09 05:28 | 50.62936 | 5.43131 | 642 ft | 11 kts | 56° |
| 2026-05-09 05:28 | 50.63134 | 5.43459 | 633 ft | 79 kts | 45° |
| 2026-05-09 05:28 | 50.63712 | 5.44376 | 602 ft | 154 kts | 45° |
| 2026-05-09 05:28 | 50.64617 | 5.45806 | 792 ft | 208 kts | 45° |
| 2026-05-09 05:29 | 50.65739 | 5.47544 | 1650 ft | 235 kts | 46° |
| 2026-05-09 05:29 | 50.66837 | 5.49265 | 2678 ft | 230 kts | 45° |
| 2026-05-09 05:29 | 50.68017 | 5.51094 | 3103 ft | 239 kts | 46° |
| 2026-05-09 05:29 | 50.69124 | 5.52908 | 3977 ft | 229 kts | 46° |
| 2026-05-09 05:30 | 50.70247 | 5.54716 | 4531 ft | 233 kts | 45° |
| 2026-05-09 05:30 | 50.71384 | 5.56537 | 5136 ft | 235 kts | 45° |
| 2026-05-09 05:30 | 50.72559 | 5.58376 | 5700 ft | 238 kts | 37° |
| 2026-05-09 05:30 | 50.74039 | 5.59471 | 6190 ft | 241 kts | 4° |
| 2026-05-09 05:31 | 50.75660 | 5.59133 | 6767 ft | 241 kts | 332° |
| 2026-05-09 05:31 | 50.77017 | 5.57541 | 7191 ft | 249 kts | 313° |
| 2026-05-09 05:31 | 50.77944 | 5.55130 | 7446 ft | 266 kts | 283° |
| 2026-05-09 05:31 | 50.78001 | 5.52177 | 7787 ft | 279 kts | 254° |
| 2026-05-09 05:32 | 50.77126 | 5.49480 | 8414 ft | 282 kts | 226° |
| 2026-05-09 05:32 | 50.75533 | 5.47706 | 9055 ft | 285 kts | 198° |
| 2026-05-09 05:32 | 50.73626 | 5.47278 | 9649 ft | 287 kts | 172° |
| 2026-05-09 05:32 | 50.71755 | 5.48284 | 10294 ft | 289 kts | 145° |
| 2026-05-09 05:33 | 50.70316 | 5.50527 | 10682 ft | 302 kts | 121° |
| 2026-05-09 05:33 | 50.69326 | 5.53528 | 10968 ft | 319 kts | 116° |
| 2026-05-09 05:33 | 50.68320 | 5.56749 | 11255 ft | 335 kts | 117° |
| 2026-05-09 05:33 | 50.67004 | 5.59920 | 11514 ft | 352 kts | 130° |
| 2026-05-09 05:34 | 50.65242 | 5.62732 | 11781 ft | 369 kts | 138° |
| 2026-05-09 05:34 | 50.63243 | 5.65369 | 12197 ft | 381 kts | 142° |
| 2026-05-09 05:34 | 50.61165 | 5.67863 | 12855 ft | 385 kts | 144° |
| 2026-05-09 05:34 | 50.59028 | 5.70389 | 13497 ft | 389 kts | 140° |
| 2026-05-09 05:35 | 50.57183 | 5.73524 | 14085 ft | 394 kts | 128° |
| 2026-05-09 05:35 | 50.55486 | 5.76913 | 14698 ft | 398 kts | 131° |
| 2026-05-09 05:35 | 50.53704 | 5.80223 | 15295 ft | 401 kts | 130° |
| 2026-05-09 05:35 | 50.51904 | 5.83608 | 15874 ft | 405 kts | 131° |
| 2026-05-09 05:36 | 50.50106 | 5.86977 | 16437 ft | 408 kts | 130° |
| 2026-05-09 05:36 | 50.48266 | 5.90423 | 16977 ft | 412 kts | 130° |
| 2026-05-09 05:36 | 50.46429 | 5.93864 | 17551 ft | 415 kts | 130° |
| 2026-05-09 05:36 | 50.44566 | 5.97347 | 18110 ft | 418 kts | 130° |
| 2026-05-09 05:37 | 50.42679 | 6.00873 | 18620 ft | 422 kts | 130° |
| 2026-05-09 05:37 | 50.40787 | 6.04399 | 19129 ft | 426 kts | 130° |
| 2026-05-09 05:37 | 50.38892 | 6.07929 | 19656 ft | 429 kts | 130° |
| 2026-05-09 05:37 | 50.36979 | 6.11488 | 20177 ft | 432 kts | 129° |
| 2026-05-09 05:38 | 50.35040 | 6.15091 | 20647 ft | 436 kts | 129° |
| 2026-05-09 05:38 | 50.33070 | 6.18745 | 21123 ft | 439 kts | 129° |
| 2026-05-09 05:38 | 50.31080 | 6.22432 | 21529 ft | 444 kts | 129° |
| 2026-05-09 05:38 | 50.29096 | 6.26104 | 21996 ft | 446 kts | 129° |
| 2026-05-09 05:39 | 50.27102 | 6.29787 | 22368 ft | 450 kts | 129° |
| 2026-05-09 05:39 | 50.25077 | 6.33523 | 22805 ft | 453 kts | 129° |
| 2026-05-09 05:39 | 50.23026 | 6.37300 | 23182 ft | 456 kts | 129° |
| 2026-05-09 05:39 | 50.21080 | 6.41197 | 23536 ft | 458 kts | 121° |
| 2026-05-09 05:40 | 50.19543 | 6.45573 | 23904 ft | 458 kts | 111° |
| 2026-05-09 05:40 | 50.18507 | 6.50230 | 24263 ft | 459 kts | 101° |
| 2026-05-09 05:40 | 50.17953 | 6.55136 | 24617 ft | 459 kts | 94° |
| 2026-05-09 05:40 | 50.17561 | 6.60071 | 24940 ft | 462 kts | 95° |
| 2026-05-09 05:41 | 50.17135 | 6.65057 | 25271 ft | 464 kts | 95° |
| 2026-05-09 05:41 | 50.16727 | 6.69981 | 25598 ft | 466 kts | 95° |
| 2026-05-09 05:41 | 50.16318 | 6.74942 | 25913 ft | 468 kts | 95° |
| 2026-05-09 05:41 | 50.15901 | 6.80018 | 26229 ft | 470 kts | 95° |
| 2026-05-09 05:42 | 50.15484 | 6.85078 | 26538 ft | 472 kts | 95° |
| 2026-05-09 05:42 | 50.15068 | 6.90119 | 26806 ft | 475 kts | 95° |
| 2026-05-09 05:42 | 50.14646 | 6.95220 | 27080 ft | 477 kts | 95° |
| 2026-05-09 05:42 | 50.14222 | 7.00316 | 27372 ft | 478 kts | 95° |
| 2026-05-09 05:43 | 50.13789 | 7.05495 | 27590 ft | 481 kts | 95° |
| 2026-05-09 05:43 | 50.13355 | 7.10663 | 27848 ft | 482 kts | 95° |
| 2026-05-09 05:43 | 50.12922 | 7.15788 | 28115 ft | 484 kts | 94° |
| 2026-05-09 05:43 | 50.12479 | 7.21002 | 28345 ft | 485 kts | 94° |
| 2026-05-09 05:44 | 50.12036 | 7.26191 | 28581 ft | 486 kts | 94° |
| 2026-05-09 05:44 | 50.11585 | 7.31463 | 28781 ft | 488 kts | 94° |
| 2026-05-09 05:44 | 50.11136 | 7.36672 | 29015 ft | 488 kts | 94° |
| 2026-05-09 05:44 | 50.10686 | 7.41853 | 29198 ft | 489 kts | 94° |
| 2026-05-09 05:45 | 50.10223 | 7.47160 | 29525 ft | 487 kts | 94° |
| 2026-05-09 05:45 | 50.09766 | 7.52378 | 29770 ft | 487 kts | 94° |
| 2026-05-09 05:45 | 50.09311 | 7.57537 | 29980 ft | 487 kts | 94° |
| 2026-05-09 05:45 | 50.08844 | 7.62799 | 30197 ft | 487 kts | 94° |
| 2026-05-09 05:46 | 50.08385 | 7.67958 | 30404 ft | 487 kts | 95° |
| 2026-05-09 05:46 | 50.07919 | 7.73165 | 30558 ft | 488 kts | 94° |
| 2026-05-09 05:46 | 50.07449 | 7.78395 | 30853 ft | 486 kts | 95° |
| 2026-05-09 05:46 | 50.06982 | 7.83560 | 30989 ft | 487 kts | 95° |
| 2026-05-09 05:47 | 50.06513 | 7.88718 | 31185 ft | 486 kts | 94° |
| 2026-05-09 05:47 | 50.06037 | 7.93921 | 31416 ft | 485 kts | 94° |
| 2026-05-09 05:47 | 50.05557 | 7.99157 | 31549 ft | 486 kts | 94° |
| 2026-05-09 05:47 | 50.05022 | 8.04330 | 31738 ft | 487 kts | 99° |
| 2026-05-09 05:48 | 50.04047 | 8.09410 | 31903 ft | 492 kts | 108° |
| 2026-05-09 05:48 | 50.02641 | 8.14241 | 32048 ft | 494 kts | 111° |
| 2026-05-09 05:48 | 50.01173 | 8.19049 | 32197 ft | 493 kts | 112° |
| 2026-05-09 05:48 | 49.99697 | 8.23808 | 32361 ft | 493 kts | 112° |
| 2026-05-09 05:49 | 49.98187 | 8.28651 | 32491 ft | 493 kts | 112° |
| 2026-05-09 05:49 | 49.96703 | 8.33379 | 32664 ft | 493 kts | 112° |
| 2026-05-09 05:49 | 49.95190 | 8.38182 | 32791 ft | 493 kts | 112° |
| 2026-05-09 05:49 | 49.93686 | 8.42940 | 32869 ft | 494 kts | 112° |
| 2026-05-09 05:50 | 49.92176 | 8.47701 | 33048 ft | 493 kts | 112° |
| 2026-05-09 05:50 | 49.90653 | 8.52496 | 33172 ft | 493 kts | 112° |
| 2026-05-09 05:50 | 49.89166 | 8.57165 | 33286 ft | 493 kts | 112° |
| 2026-05-09 05:50 | 49.87658 | 8.61887 | 33392 ft | 493 kts | 112° |
| 2026-05-09 05:51 | 49.86155 | 8.66585 | 33539 ft | 493 kts | 113° |
| 2026-05-09 05:51 | 49.84644 | 8.71306 | 33555 ft | 494 kts | 113° |
| 2026-05-09 05:51 | 49.83109 | 8.76083 | 33788 ft | 491 kts | 113° |
| 2026-05-09 05:51 | 49.81601 | 8.80771 | 33792 ft | 494 kts | 113° |
| 2026-05-09 05:52 | 49.78540 | 8.90257 | 33990 ft | 493 kts | 114° |
| 2026-05-09 05:52 | 49.75452 | 8.99793 | 34100 ft | 495 kts | 114° |
| 2026-05-09 05:53 | 49.72366 | 9.09285 | 34301 ft | 495 kts | 114° |
| 2026-05-09 05:53 | 49.69273 | 9.18764 | 34411 ft | 495 kts | 114° |
| 2026-05-09 05:54 | 49.66112 | 9.28216 | 34500 ft | 498 kts | 119° |
| 2026-05-09 05:54 | 49.64119 | 9.32549 | 34626 ft | 499 kts | 129° |
| 2026-05-09 05:54 | 49.61731 | 9.36360 | 34652 ft | 501 kts | 138° |
| 2026-05-09 05:55 | 49.55945 | 9.42120 | 34785 ft | 502 kts | 156° |
| 2026-05-09 05:55 | 49.49311 | 9.45341 | 34933 ft | 499 kts | 166° |
| 2026-05-09 05:56 | 49.45962 | 9.46650 | 35043 ft | 497 kts | 167° |
| 2026-05-09 05:56 | 49.42590 | 9.47906 | 35045 ft | 497 kts | 167° |